PWSweather.com
Personal Weather Stations
Station Observations
MADWEATHER
MadeiraPT

MadeiraPT

Lat: 32.735, Lon: -17.194

Elevation: 1063

Station Type: Davis VantagePro2

Latest ConditionsUpdated 12:00:01 PM GMT Monday, Sep 22, 2014
Currently Today's Max Today's Min Today's Average
Temperature 75.7°F24.3°C 75.7°F24.3°C 62.8°F17.1°C 66.1°F18.9°C
Dew Point 63.5°F17.5°C 63.5°F17.5°C 52.9°F11.6°C 58.2°F14.6°C
Winds 10.1 mph W16.3 kmh W 10.1 mph W16.3 kmh W - 3.6 mph 5.8 kmh
Wind Gusts 13.0 mph20.9 kmh 14.0 mph22.5 kmh - -
Humidity 66% 86% 64% 76%
Pressure 30.05 in1017.6 mb 30.07 in1018.3 mb 30.02 in1016.6 mb -
Hour Temp Dew Point Humidity Winds Wind Gusts Pressure Precip Precip Rate Daily Precip Total
12:00 PM 75.7°F24.3°C 63.5°F17.5°C 66% 10.1 mph W16.3 kmh W 13.0 mph20.9 kmh 30.05 in1017.6 mb 0.00 in0.0 mm 0.00 in/hr0.0 mm/hr 0.00 in0.0 mm
11:50 AM 75.1°F23.9°C 62.1°F16.7°C 64% 7.7 mph W12.4 kmh W 12.0 mph19.3 kmh 30.05 in1017.6 mb 0.00 in0.0 mm 0.00 in/hr0.0 mm/hr 0.00 in0.0 mm
11:40 AM 74.5°F23.6°C 62.4°F16.9°C 66% 8.0 mph W12.9 kmh W 12.0 mph19.3 kmh 30.06 in1017.9 mb 0.00 in0.0 mm 0.00 in/hr0.0 mm/hr 0.00 in0.0 mm
11:30 AM 74.4°F23.6°C 62.7°F17.1°C 67% 6.8 mph W10.9 kmh W 10.0 mph16.1 kmh 30.05 in1017.6 mb 0.00 in0.0 mm 0.00 in/hr0.0 mm/hr 0.00 in0.0 mm
11:20 AM 74.4°F23.6°C 61.9°F16.6°C 65% 8.0 mph WSW12.9 kmh WSW 12.0 mph19.3 kmh 30.06 in1017.9 mb 0.00 in0.0 mm 0.00 in/hr0.0 mm/hr 0.00 in0.0 mm
11:10 AM 74.4°F23.6°C 61.8°F16.6°C 65% 1.3 mph N2.1 kmh N 5.0 mph8.0 kmh 30.06 in1017.9 mb 0.00 in0.0 mm 0.00 in/hr0.0 mm/hr 0.00 in0.0 mm
11:00 AM 72.8°F22.7°C 62.1°F16.7°C 69% 3.3 mph N5.3 kmh N 5.0 mph8.0 kmh 30.06 in1017.9 mb 0.00 in0.0 mm 0.00 in/hr0.0 mm/hr 0.00 in0.0 mm
10:50 AM 69.9°F21.1°C 62.0°F16.7°C 76% 3.5 mph NNW5.6 kmh NNW 7.0 mph11.3 kmh 30.07 in1018.3 mb 0.00 in0.0 mm 0.00 in/hr0.0 mm/hr 0.00 in0.0 mm
10:40 AM 69.4°F20.8°C 61.5°F16.4°C 76% 2.9 mph NW4.7 kmh NW 7.0 mph11.3 kmh 30.07 in1018.3 mb 0.00 in0.0 mm 0.00 in/hr0.0 mm/hr 0.00 in0.0 mm
10:30 AM 69.9°F21.1°C 61.6°F16.4°C 75% 5.8 mph NNW9.3 kmh NNW 10.0 mph16.1 kmh 30.07 in1018.3 mb 0.00 in0.0 mm 0.00 in/hr0.0 mm/hr 0.00 in0.0 mm
10:20 AM 70.3°F21.3°C 63.1°F17.3°C 78% 2.3 mph WNW3.7 kmh WNW 5.0 mph8.0 kmh 30.07 in1018.3 mb 0.00 in0.0 mm 0.00 in/hr0.0 mm/hr 0.00 in0.0 mm
10:10 AM 69.3°F20.7°C 62.5°F16.9°C 79% 7.3 mph W11.7 kmh W 11.0 mph17.7 kmh 30.07 in1018.3 mb 0.00 in0.0 mm 0.00 in/hr0.0 mm/hr 0.00 in0.0 mm
10:00 AM 68.9°F20.5°C 62.1°F16.7°C 79% 7.1 mph NW11.4 kmh NW 11.0 mph17.7 kmh 30.07 in1018.3 mb 0.00 in0.0 mm 0.00 in/hr0.0 mm/hr 0.00 in0.0 mm
09:50 AM 69.2°F20.7°C 62.0°F16.7°C 78% 8.9 mph WNW14.3 kmh WNW 14.0 mph22.5 kmh 30.06 in1017.9 mb 0.00 in0.0 mm 0.00 in/hr0.0 mm/hr 0.00 in0.0 mm
09:40 AM 68.9°F20.5°C 61.8°F16.6°C 78% 6.3 mph W10.1 kmh W 13.0 mph20.9 kmh 30.07 in1018.3 mb 0.00 in0.0 mm 0.00 in/hr0.0 mm/hr 0.00 in0.0 mm
09:30 AM 69.1°F20.6°C 61.6°F16.4°C 77% 7.4 mph W11.9 kmh W 10.0 mph16.1 kmh 30.06 in1017.9 mb 0.00 in0.0 mm 0.00 in/hr0.0 mm/hr 0.00 in0.0 mm
09:20 AM 69.3°F20.7°C 61.0°F16.1°C 75% 6.5 mph W10.5 kmh W 10.0 mph16.1 kmh 30.06 in1017.9 mb 0.00 in0.0 mm 0.00 in/hr0.0 mm/hr 0.00 in0.0 mm
09:10 AM 69.7°F20.9°C 60.6°F15.9°C 73% 8.4 mph WNW13.5 kmh WNW 11.0 mph17.7 kmh 30.06 in1017.9 mb 0.00 in0.0 mm 0.00 in/hr0.0 mm/hr 0.00 in0.0 mm
09:00 AM 69.3°F20.7°C 60.7°F15.9°C 74% 2.4 mph NW3.9 kmh NW 7.0 mph11.3 kmh 30.06 in1017.9 mb 0.00 in0.0 mm 0.00 in/hr0.0 mm/hr 0.00 in0.0 mm
08:50 AM 68.9°F20.5°C 59.9°F15.5°C 73% 6.9 mph NW11.1 kmh NW 10.0 mph16.1 kmh 30.06 in1017.9 mb 0.00 in0.0 mm 0.00 in/hr0.0 mm/hr 0.00 in0.0 mm
08:40 AM 68.4°F20.2°C 57.8°F14.3°C 69% 4.3 mph NW6.9 kmh NW 6.0 mph9.7 kmh 30.06 in1017.9 mb 0.00 in0.0 mm 0.00 in/hr0.0 mm/hr 0.00 in0.0 mm
08:30 AM 67.6°F19.8°C 55.0°F12.8°C 64% 3.1 mph NW5.0 kmh NW 7.0 mph11.3 kmh 30.05 in1017.6 mb 0.00 in0.0 mm 0.00 in/hr0.0 mm/hr 0.00 in0.0 mm
08:10 AM 66.2°F19.0°C 54.5°F12.5°C 66% 4.9 mph NNW7.9 kmh NNW 7.0 mph11.3 kmh 30.05 in1017.6 mb 0.00 in0.0 mm 0.00 in/hr0.0 mm/hr 0.00 in0.0 mm
08:00 AM 65.6°F18.7°C 54.3°F12.4°C 67% 4.0 mph NNW6.4 kmh NNW 6.0 mph9.7 kmh 30.04 in1017.3 mb 0.00 in0.0 mm 0.00 in/hr0.0 mm/hr 0.00 in0.0 mm
07:50 AM 65.0°F18.3°C 54.2°F12.3°C 68% 3.9 mph NNW6.3 kmh NNW 6.0 mph9.7 kmh 30.04 in1017.3 mb 0.00 in0.0 mm 0.00 in/hr0.0 mm/hr 0.00 in0.0 mm
07:40 AM 64.4°F18.0°C 53.2°F11.8°C 67% 4.9 mph NNW7.9 kmh NNW 7.0 mph11.3 kmh 30.04 in1017.3 mb 0.00 in0.0 mm 0.00 in/hr0.0 mm/hr 0.00 in0.0 mm
07:30 AM 64.1°F17.8°C 52.9°F11.6°C 67% 4.1 mph NNW6.6 kmh NNW 7.0 mph11.3 kmh 30.03 in1016.9 mb 0.00 in0.0 mm 0.00 in/hr0.0 mm/hr 0.00 in0.0 mm
07:20 AM 64.3°F17.9°C 53.1°F11.7°C 67% 4.2 mph NNW6.8 kmh NNW 7.0 mph11.3 kmh 30.03 in1016.9 mb 0.00 in0.0 mm 0.00 in/hr0.0 mm/hr 0.00 in0.0 mm
07:10 AM 64.3°F17.9°C 53.1°F11.7°C 67% 4.2 mph NNW6.8 kmh NNW 10.0 mph16.1 kmh 30.03 in1016.9 mb 0.00 in0.0 mm 0.00 in/hr0.0 mm/hr 0.00 in0.0 mm
07:00 AM 64.4°F18.0°C 54.0°F12.2°C 69% 3.4 mph NNW5.5 kmh NNW 7.0 mph11.3 kmh 30.03 in1016.9 mb 0.00 in0.0 mm 0.00 in/hr0.0 mm/hr 0.00 in0.0 mm
06:50 AM 64.6°F18.1°C 54.6°F12.6°C 70% 2.7 mph N4.3 kmh N 4.0 mph6.4 kmh 30.03 in1016.9 mb 0.00 in0.0 mm 0.00 in/hr0.0 mm/hr 0.00 in0.0 mm
06:40 AM 64.6°F18.1°C 55.0°F12.8°C 71% 2.4 mph N3.9 kmh N 5.0 mph8.0 kmh 30.03 in1016.9 mb 0.00 in0.0 mm 0.00 in/hr0.0 mm/hr 0.00 in0.0 mm
06:30 AM 64.5°F18.1°C 55.3°F12.9°C 72% 3.3 mph NNW5.3 kmh NNW 5.0 mph8.0 kmh 30.02 in1016.6 mb 0.00 in0.0 mm 0.00 in/hr0.0 mm/hr 0.00 in0.0 mm
06:20 AM 64.5°F18.1°C 55.7°F13.2°C 73% 3.2 mph NNW5.1 kmh NNW 6.0 mph9.7 kmh 30.02 in1016.6 mb 0.00 in0.0 mm 0.00 in/hr0.0 mm/hr 0.00 in0.0 mm
06:10 AM 64.3°F17.9°C 55.5°F13.1°C 73% 3.2 mph NNW5.1 kmh NNW 6.0 mph9.7 kmh 30.02 in1016.6 mb 0.00 in0.0 mm 0.00 in/hr0.0 mm/hr 0.00 in0.0 mm
06:00 AM 64.2°F17.9°C 55.7°F13.2°C 74% 1.6 mph NNW2.6 kmh NNW 7.0 mph11.3 kmh 30.02 in1016.6 mb 0.00 in0.0 mm 0.00 in/hr0.0 mm/hr 0.00 in0.0 mm
05:50 AM 64.0°F17.8°C 55.9°F13.3°C 75% 1.8 mph NNW2.9 kmh NNW 2.0 mph3.2 kmh 30.02 in1016.6 mb 0.00 in0.0 mm 0.00 in/hr0.0 mm/hr 0.00 in0.0 mm
05:40 AM 63.9°F17.7°C 56.5°F13.6°C 77% 2.3 mph NNW3.7 kmh NNW 4.0 mph6.4 kmh 30.02 in1016.6 mb 0.00 in0.0 mm 0.00 in/hr0.0 mm/hr 0.00 in0.0 mm
05:30 AM 63.5°F17.5°C 56.5°F13.6°C 78% 2.6 mph NNW4.2 kmh NNW 5.0 mph8.0 kmh 30.02 in1016.6 mb 0.00 in0.0 mm 0.00 in/hr0.0 mm/hr 0.00 in0.0 mm
05:20 AM 63.2°F17.3°C 56.6°F13.7°C 79% 4.0 mph NNW6.4 kmh NNW 9.0 mph14.5 kmh 30.02 in1016.6 mb 0.00 in0.0 mm 0.00 in/hr0.0 mm/hr 0.00 in0.0 mm
05:10 AM 63.1°F17.3°C 56.8°F13.8°C 80% 1.8 mph NNW2.9 kmh NNW 3.0 mph4.8 kmh 30.02 in1016.6 mb 0.00 in0.0 mm 0.00 in/hr0.0 mm/hr 0.00 in0.0 mm
05:00 AM 63.2°F17.3°C 57.3°F14.1°C 81% 3.1 mph NNW5.0 kmh NNW 6.0 mph9.7 kmh 30.02 in1016.6 mb 0.00 in0.0 mm 0.00 in/hr0.0 mm/hr 0.00 in0.0 mm
04:50 AM 63.8°F17.7°C 57.9°F14.4°C 81% 2.1 mph NNW3.4 kmh NNW 3.0 mph4.8 kmh 30.02 in1016.6 mb 0.00 in0.0 mm 0.00 in/hr0.0 mm/hr 0.00 in0.0 mm
04:40 AM 64.2°F17.9°C 57.9°F14.4°C 80% 1.4 mph NNW2.3 kmh NNW 2.0 mph3.2 kmh 30.02 in1016.6 mb 0.00 in0.0 mm 0.00 in/hr0.0 mm/hr 0.00 in0.0 mm
04:30 AM 64.5°F18.1°C 58.2°F14.6°C 80% 1.0 mph NNW1.6 kmh NNW 3.0 mph4.8 kmh 30.02 in1016.6 mb 0.00 in0.0 mm 0.00 in/hr0.0 mm/hr 0.00 in0.0 mm
04:20 AM 64.7°F18.2°C 58.7°F14.8°C 81% 1.9 mph NNW3.1 kmh NNW 4.0 mph6.4 kmh 30.02 in1016.6 mb 0.00 in0.0 mm 0.00 in/hr0.0 mm/hr 0.00 in0.0 mm
04:10 AM 64.5°F18.1°C 58.5°F14.7°C 81% 1.9 mph NNW3.1 kmh NNW 5.0 mph8.0 kmh 30.02 in1016.6 mb 0.00 in0.0 mm 0.00 in/hr0.0 mm/hr 0.00 in0.0 mm
04:00 AM 64.0°F17.8°C 57.7°F14.3°C 80% 2.9 mph NNW4.7 kmh NNW 5.0 mph8.0 kmh 30.02 in1016.6 mb 0.00 in0.0 mm 0.00 in/hr0.0 mm/hr 0.00 in0.0 mm
03:50 AM 63.8°F17.7°C 57.2°F14.0°C 79% 2.3 mph N3.7 kmh N 5.0 mph8.0 kmh 30.02 in1016.6 mb 0.00 in0.0 mm 0.00 in/hr0.0 mm/hr 0.00 in0.0 mm
03:40 AM 63.8°F17.7°C 56.4°F13.6°C 77% 2.6 mph N4.2 kmh N 5.0 mph8.0 kmh 30.02 in1016.6 mb 0.00 in0.0 mm 0.00 in/hr0.0 mm/hr 0.00 in0.0 mm
03:30 AM 63.9°F17.7°C 56.5°F13.6°C 77% 3.6 mph N5.8 kmh N 5.0 mph8.0 kmh 30.03 in1016.9 mb 0.00 in0.0 mm 0.00 in/hr0.0 mm/hr 0.00 in0.0 mm
03:20 AM 63.8°F17.7°C 56.4°F13.6°C 77% 2.7 mph N4.3 kmh N 4.0 mph6.4 kmh 30.03 in1016.9 mb 0.00 in0.0 mm 0.00 in/hr0.0 mm/hr 0.00 in0.0 mm
03:10 AM 63.7°F17.6°C 56.7°F13.7°C 78% 3.4 mph N5.5 kmh N 5.0 mph8.0 kmh 30.03 in1016.9 mb 0.00 in0.0 mm 0.00 in/hr0.0 mm/hr 0.00 in0.0 mm
03:00 AM 63.5°F17.5°C 56.9°F13.8°C 79% 2.9 mph N4.7 kmh N 5.0 mph8.0 kmh 30.03 in1016.9 mb 0.00 in0.0 mm 0.00 in/hr0.0 mm/hr 0.00 in0.0 mm
02:50 AM 63.5°F17.5°C 56.8°F13.8°C 79% 3.3 mph NNE5.3 kmh NNE 5.0 mph8.0 kmh 30.04 in1017.3 mb 0.00 in0.0 mm 0.00 in/hr0.0 mm/hr 0.00 in0.0 mm
02:40 AM 63.2°F17.3°C 57.3°F14.1°C 81% 1.7 mph NE2.7 kmh NE 5.0 mph8.0 kmh 30.04 in1017.3 mb 0.00 in0.0 mm 0.00 in/hr0.0 mm/hr 0.00 in0.0 mm
02:30 AM 63.1°F17.3°C 57.2°F14.0°C 81% 0.4 mph NE0.6 kmh NE 4.0 mph6.4 kmh 30.04 in1017.3 mb 0.00 in0.0 mm 0.00 in/hr0.0 mm/hr 0.00 in0.0 mm
02:20 AM 62.8°F17.1°C 57.6°F14.2°C 83% 0.8 mph NE1.3 kmh NE 4.0 mph6.4 kmh 30.04 in1017.3 mb 0.00 in0.0 mm 0.00 in/hr0.0 mm/hr 0.00 in0.0 mm
02:10 AM 62.8°F17.1°C 58.2°F14.6°C 85% 2.4 mph NE3.9 kmh NE 3.0 mph4.8 kmh 30.04 in1017.3 mb 0.00 in0.0 mm 0.00 in/hr0.0 mm/hr 0.00 in0.0 mm
02:00 AM 63.0°F17.2°C 58.7°F14.8°C 86% 1.2 mph ENE1.9 kmh ENE 4.0 mph6.4 kmh 30.05 in1017.6 mb 0.00 in0.0 mm 0.00 in/hr0.0 mm/hr 0.00 in0.0 mm
01:50 AM 63.2°F17.3°C 58.9°F14.9°C 86% 2.3 mph ENE3.7 kmh ENE 5.0 mph8.0 kmh 30.05 in1017.6 mb 0.00 in0.0 mm 0.00 in/hr0.0 mm/hr 0.00 in0.0 mm
01:40 AM 63.4°F17.4°C 58.8°F14.9°C 85% 2.4 mph ENE3.9 kmh ENE 4.0 mph6.4 kmh 30.05 in1017.6 mb 0.00 in0.0 mm 0.00 in/hr0.0 mm/hr 0.00 in0.0 mm
01:30 AM 63.5°F17.5°C 58.9°F14.9°C 85% 3.1 mph ENE5.0 kmh ENE 4.0 mph6.4 kmh 30.05 in1017.6 mb 0.00 in0.0 mm 0.00 in/hr0.0 mm/hr 0.00 in0.0 mm
01:20 AM 63.6°F17.6°C 59.0°F15.0°C 85% 2.5 mph ENE4.0 kmh ENE 3.0 mph4.8 kmh 30.05 in1017.6 mb 0.00 in0.0 mm 0.00 in/hr0.0 mm/hr 0.00 in0.0 mm
01:10 AM 63.8°F17.7°C 59.2°F15.1°C 85% 2.3 mph ENE3.7 kmh ENE 3.0 mph4.8 kmh 30.06 in1017.9 mb 0.00 in0.0 mm 0.00 in/hr0.0 mm/hr 0.00 in0.0 mm
01:00 AM 64.1°F17.8°C 59.2°F15.1°C 84% 3.0 mph ENE4.8 kmh ENE 3.0 mph4.8 kmh 30.06 in1017.9 mb 0.00 in0.0 mm 0.00 in/hr0.0 mm/hr 0.00 in0.0 mm
12:50 AM 64.3°F17.9°C 59.4°F15.2°C 84% 2.0 mph ENE3.2 kmh ENE 3.0 mph4.8 kmh 30.06 in1017.9 mb 0.00 in0.0 mm 0.00 in/hr0.0 mm/hr 0.00 in0.0 mm
12:40 AM 64.3°F17.9°C 59.4°F15.2°C 84% 0.2 mph ENE0.3 kmh ENE -- 30.06 in1017.9 mb 0.00 in0.0 mm 0.00 in/hr0.0 mm/hr 0.00 in0.0 mm
12:30 AM 64.0°F17.8°C 59.1°F15.1°C 84% 1.9 mph ENE3.1 kmh ENE 2.0 mph3.2 kmh 30.06 in1017.9 mb 0.00 in0.0 mm 0.00 in/hr0.0 mm/hr 0.00 in0.0 mm
12:20 AM 64.1°F17.8°C 58.8°F14.9°C 83% 2.4 mph ENE3.9 kmh ENE 3.0 mph4.8 kmh 30.06 in1017.9 mb 0.00 in0.0 mm 0.00 in/hr0.0 mm/hr 0.00 in0.0 mm
12:10 AM 64.3°F17.9°C 58.7°F14.8°C 82% 2.0 mph ENE3.2 kmh ENE 4.0 mph6.4 kmh 30.06 in1017.9 mb 0.00 in0.0 mm 0.00 in/hr0.0 mm/hr 0.00 in0.0 mm
12:00 AM 64.4°F18.0°C 58.4°F14.7°C 81% 1.4 mph ENE2.3 kmh ENE 3.0 mph4.8 kmh 30.06 in1017.9 mb 0.00 in0.0 mm 0.00 in/hr0.0 mm/hr 0.00 in0.0 mm